Time;durP1;ratioP1;P1;durP2;ratioP2;P2;SDS_P1;SDS_P2;PMS_P1;PMS_P2;Temp;Humidity;BMP_temperature;BMP_pressure;BME280_temperature;BME280_humidity;BME280_pressure;Samples;Min_cycle;Max_cycle;Signal;HPM_P1;HPM_P2
2023/01/27 00:01:07;;;;;;;24.77;12.33;;;1.30;99.90;;;;;;5044154;28;20512;-71
2023/01/27 00:03:34;;;;;;;28.67;13.87;;;1.30;99.90;;;;;;5052066;28;20238;-71
2023/01/27 00:06:05;;;;;;;29.20;13.97;;;1.30;99.90;;;;;;5042178;28;20312;-71
2023/01/27 00:08:32;;;;;;;32.67;14.67;;;1.30;99.90;;;;;;5043090;28;20193;-72
2023/01/27 00:13:46;;;;;;;31.33;15.60;;;1.40;99.90;;;;;;5043827;28;20669;-71
2023/01/27 00:16:13;;;;;;;29.27;15.00;;;1.30;99.90;;;;;;5042406;28;20199;-70
2023/01/27 00:18:41;;;;;;;34.00;15.70;;;1.40;99.90;;;;;;5025676;28;20282;-67
2023/01/27 00:26:39;;;;;;;27.03;12.70;;;1.10;99.90;;;;;;5024688;28;20213;-67
2023/01/27 00:29:06;;;;;;;24.67;12.57;;;1.20;99.90;;;;;;5043544;28;20187;-71
2023/01/27 00:34:18;;;;;;;27.17;13.43;;;0.90;99.90;;;;;;5055106;28;20192;-70
2023/01/27 00:36:45;;;;;;;28.30;13.90;;;0.80;99.90;;;;;;5042159;28;20195;-73
2023/01/27 00:39:12;;;;;;;25.57;12.67;;;1.00;99.90;;;;;;5026587;28;20188;-69
2023/01/27 00:41:40;;;;;;;24.03;13.37;;;1.00;99.90;;;;;;5042401;28;20213;-71
2023/01/27 00:44:11;;;;;;;28.20;13.93;;;1.10;99.90;;;;;;5039208;28;20255;-73
2023/01/27 00:46:39;;;;;;;28.37;13.93;;;1.20;99.90;;;;;;5036148;28;20286;-72
2023/01/27 00:49:07;;;;;;;25.67;13.10;;;1.20;99.90;;;;;;5034285;28;20188;-72
2023/01/27 00:51:35;;;;;;;29.23;13.73;;;1.30;99.90;;;;;;5016337;28;20568;-73
2023/01/27 00:54:02;;;;;;;28.20;13.77;;;1.30;99.90;;;;;;5033604;28;20689;-75
2023/01/27 00:56:30;;;;;;;24.73;13.67;;;1.30;99.90;;;;;;5039047;28;20228;-74
2023/01/27 00:58:57;;;;;;;30.83;15.00;;;1.30;99.90;;;;;;5035370;28;20611;-73
2023/01/27 01:01:24;;;;;;;30.77;15.30;;;1.30;99.90;;;;;;5025852;28;20214;-73
2023/01/27 01:03:51;;;;;;;30.90;15.93;;;1.30;99.90;;;;;;5050286;28;20315;-72
2023/01/27 01:06:18;;;;;;;32.47;15.77;;;1.30;99.90;;;;;;5009230;28;20244;-72
2023/01/27 01:08:45;;;;;;;37.05;19.77;;;1.30;99.90;;;;;;5016963;28;20448;-73
2023/01/27 01:11:14;;;;;;;34.77;16.97;;;1.30;99.90;;;;;;5000347;28;20207;-70
2023/01/27 01:13:42;;;;;;;35.20;18.13;;;1.30;99.90;;;;;;5012063;28;20188;-69
2023/01/27 01:16:13;;;;;;;36.70;17.90;;;1.30;99.90;;;;;;4993186;28;20194;-69
2023/01/27 01:18:42;;;;;;;37.03;17.53;;;1.40;99.90;;;;;;5019640;28;20301;-69
2023/01/27 01:21:10;;;;;;;35.57;16.87;;;1.40;99.90;;;;;;5012190;28;20227;-68
2023/01/27 01:23:39;;;;;;;33.87;16.50;;;1.30;99.90;;;;;;5013022;28;20200;-70
2023/01/27 01:26:08;;;;;;;35.77;16.87;;;1.20;99.90;;;;;;5012676;28;20318;-71
2023/01/27 01:28:34;;;;;;;37.27;16.57;;;1.20;99.90;;;;;;4995463;28;20206;-69
2023/01/27 01:31:06;;;;;;;36.83;16.17;;;1.30;99.90;;;;;;5012044;28;20196;-70
2023/01/27 01:33:33;;;;;;;35.20;16.27;;;1.40;99.90;;;;;;5012764;28;20290;-70
2023/01/27 01:36:11;;;;;;;36.20;16.67;;;1.40;99.90;;;;;;5004625;28;20192;-70
2023/01/27 01:38:38;;;;;;;37.27;16.30;;;1.40;99.90;;;;;;5011721;28;20191;-71
2023/01/27 01:41:09;;;;;;;33.23;16.50;;;1.40;99.90;;;;;;5010917;28;20281;-71
2023/01/27 01:43:35;;;;;;;35.93;16.67;;;1.40;99.90;;;;;;5000320;28;20661;-71
2023/01/27 01:46:06;;;;;;;38.00;17.37;;;1.50;99.90;;;;;;5008784;28;20231;-71
2023/01/27 01:48:34;;;;;;;36.93;16.90;;;1.40;99.90;;;;;;4997096;28;20199;-71
2023/01/27 01:51:15;;;;;;;35.93;16.50;;;1.40;99.90;;;;;;4995331;28;20296;-72
2023/01/27 01:54:06;;;;;;;36.00;16.97;;;1.40;99.90;;;;;;5009145;28;20570;-71
2023/01/27 01:56:39;;;;;;;37.83;16.83;;;1.30;99.90;;;;;;5008070;28;20241;-72
2023/01/27 01:59:14;;;;;;;34.20;16.60;;;1.40;99.90;;;;;;5017747;28;20199;-71
2023/01/27 02:01:41;;;;;;;33.53;17.23;;;1.40;99.90;;;;;;5009098;28;20202;-78
2023/01/27 02:04:13;;;;;;;38.77;17.30;;;1.40;99.90;;;;;;5024718;28;20697;-78
2023/01/27 02:06:46;;;;;;;35.77;16.90;;;1.40;99.90;;;;;;5022250;28;20214;-77
2023/01/27 02:09:14;;;;;;;34.33;16.53;;;1.40;99.90;;;;;;5054595;28;20192;-76
2023/01/27 02:11:41;;;;;;;37.27;17.17;;;1.50;99.90;;;;;;5024262;28;20191;-77
2023/01/27 02:14:14;;;;;;;38.03;17.43;;;1.40;99.90;;;;;;5022870;28;20267;-77
2023/01/27 02:16:41;;;;;;;35.30;16.93;;;1.50;99.90;;;;;;5039875;28;20198;-71
2023/01/27 02:19:16;;;;;;;36.43;17.33;;;1.40;99.90;;;;;;5010546;28;20244;-69
2023/01/27 02:21:43;;;;;;;37.10;17.50;;;1.40;99.90;;;;;;5039048;28;20216;-74
2023/01/27 02:24:12;;;;;;;32.30;16.77;;;1.50;99.90;;;;;;5047935;28;20211;-76
2023/01/27 02:26:43;;;;;;;33.83;17.53;;;1.50;99.90;;;;;;5014444;28;20219;-72
2023/01/27 02:29:13;;;;;;;38.87;18.33;;;1.50;99.90;;;;;;5047978;28;20229;-76
2023/01/27 02:31:40;;;;;;;36.87;17.93;;;1.50;99.90;;;;;;5049911;28;20184;-74
2023/01/27 02:34:21;;;;;;;36.27;17.57;;;1.50;99.90;;;;;;5021727;28;20241;-74
2023/01/27 02:36:54;;;;;;;38.40;17.63;;;1.50;99.90;;;;;;4998184;28;20243;-73
2023/01/27 02:39:25;;;;;;;39.03;18.43;;;1.50;99.90;;;;;;5048054;28;20198;-73
2023/01/27 02:41:55;;;;;;;37.90;18.97;;;1.50;99.90;;;;;;5015111;28;20293;-74
2023/01/27 02:44:22;;;;;;;41.90;19.07;;;1.50;99.90;;;;;;5015380;28;20211;-74
2023/01/27 02:46:49;;;;;;;43.07;19.80;;;1.50;99.90;;;;;;5030861;28;20238;-74
2023/01/27 02:49:16;;;;;;;41.53;19.93;;;1.50;99.90;;;;;;5032687;28;20286;-73
2023/01/27 02:51:43;;;;;;;42.53;19.97;;;1.50;99.90;;;;;;5032768;28;20225;-74
2023/01/27 02:54:10;;;;;;;40.60;20.13;;;1.50;99.90;;;;;;5032282;28;20196;-75
2023/01/27 02:56:37;;;;;;;43.07;20.27;;;1.50;99.90;;;;;;5030958;28;20218;-74
2023/01/27 02:59:04;;;;;;;42.80;20.53;;;1.60;99.90;;;;;;5030934;28;20243;-73
2023/01/27 03:01:31;;;;;;;46.13;21.03;;;1.50;99.90;;;;;;5035895;28;20205;-74
2023/01/27 03:03:59;;;;;;;41.13;20.17;;;1.50;99.90;;;;;;5036203;28;20567;-75
2023/01/27 03:06:25;;;;;;;42.43;20.10;;;1.50;99.90;;;;;;5022593;28;20318;-76
2023/01/27 03:08:52;;;;;;;38.03;19.23;;;1.50;99.90;;;;;;5048745;28;20219;-76
2023/01/27 03:14:06;;;;;;;39.80;19.00;;;1.40;99.90;;;;;;5014706;28;20200;-76
2023/01/27 03:19:19;;;;;;;40.80;18.33;;;1.40;99.90;;;;;;5031243;28;20198;-73
2023/01/27 03:21:49;;;;;;;35.97;17.27;;;1.50;99.90;;;;;;5015771;28;20206;-74
2023/01/27 03:24:17;;;;;;;40.37;18.77;;;1.50;99.90;;;;;;5014287;28;20276;-75
2023/01/27 03:26:47;;;;;;;40.97;19.03;;;1.50;99.90;;;;;;5014563;28;20249;-74
2023/01/27 03:31:59;;;;;;;42.83;19.63;;;1.50;99.90;;;;;;5031393;28;20298;-75
2023/01/27 03:34:26;;;;;;;40.47;19.80;;;1.50;99.90;;;;;;5009466;22;20675;-75
2023/01/27 03:48:12;;;;;;;52.13;24.03;;;1.50;99.90;;;;;;4996292;28;20214;-77
2023/01/27 03:50:42;;;;;;;55.93;25.80;;;1.50;99.90;;;;;;4978279;28;20228;-77
2023/01/27 03:53:12;;;;;;;59.47;27.03;;;1.50;99.90;;;;;;4978203;28;20196;-75
2023/01/27 03:55:39;;;;;;;57.73;26.20;;;1.50;99.90;;;;;;4978391;28;20222;-75
2023/01/27 03:58:34;;;;;;;58.90;27.10;;;1.50;99.90;;;;;;4978931;28;20189;-76
2023/01/27 04:01:04;;;;;;;61.47;26.37;;;1.40;99.90;;;;;;4982808;28;20219;-75
2023/01/27 04:09:09;;;;;;;61.30;26.93;;;1.50;99.90;;;;;;4994467;28;20208;-75
2023/01/27 04:11:54;;;;;;;56.60;26.63;;;1.40;99.90;;;;;;4994750;28;20211;-75
2023/01/27 04:14:25;;;;;;;61.93;26.83;;;1.40;99.90;;;;;;4978506;28;20213;-75
2023/01/27 04:16:54;;;;;;;64.93;28.37;;;1.40;99.90;;;;;;4994336;28;20195;-76
2023/01/27 04:19:22;;;;;;;61.73;27.30;;;1.30;99.90;;;;;;4996263;28;20208;-76
2023/01/27 04:22:21;;;;;;;64.80;27.93;;;1.30;99.90;;;;;;4995842;28;20218;-77
2023/01/27 04:24:54;;;;;;;62.67;27.70;;;1.30;99.90;;;;;;4993927;28;20295;-75
2023/01/27 04:27:21;;;;;;;56.00;25.53;;;1.40;99.90;;;;;;4994721;28;20284;-75
2023/01/27 04:29:48;;;;;;;59.63;26.57;;;1.40;99.90;;;;;;4994679;28;20209;-75
2023/01/27 04:32:15;;;;;;;55.97;24.57;;;1.40;99.90;;;;;;4995806;28;20309;-76
2023/01/27 04:34:42;;;;;;;59.27;25.83;;;1.40;99.90;;;;;;4994388;28;20212;-76
2023/01/27 04:37:09;;;;;;;59.73;25.87;;;1.40;99.90;;;;;;4978947;28;20236;-76
2023/01/27 04:39:36;;;;;;;62.83;27.33;;;1.40;99.90;;;;;;4978110;28;20827;-75
2023/01/27 04:42:03;;;;;;;62.80;27.03;;;1.40;99.90;;;;;;4978375;28;20196;-76
2023/01/27 04:44:30;;;;;;;64.27;27.47;;;1.40;99.90;;;;;;4995143;28;20200;-76
2023/01/27 04:46:57;;;;;;;66.43;27.77;;;1.40;99.90;;;;;;4961416;28;20749;-75
2023/01/27 04:49:25;;;;;;;63.13;28.67;;;1.30;99.90;;;;;;4995038;28;20284;-75
2023/01/27 04:51:53;;;;;;;62.93;28.30;;;1.30;99.90;;;;;;4977179;28;20568;-76
2023/01/27 04:54:20;;;;;;;66.00;29.07;;;1.30;99.90;;;;;;4993653;28;20505;-77
2023/01/27 04:56:57;;;;;;;67.30;29.67;;;1.30;99.90;;;;;;4977475;28;20315;-75
2023/01/27 04:59:24;;;;;;;63.83;28.83;;;1.30;99.90;;;;;;4977261;28;20261;-74
2023/01/27 05:01:51;;;;;;;59.90;28.17;;;1.30;99.90;;;;;;4994942;28;20211;-75
2023/01/27 05:04:18;;;;;;;64.40;27.83;;;1.40;99.90;;;;;;4994753;28;20549;-76
2023/01/27 05:06:45;;;;;;;65.90;29.03;;;1.30;99.90;;;;;;4994362;28;20540;-75
2023/01/27 05:09:11;;;;;;;66.03;28.57;;;1.30;99.90;;;;;;4993392;28;20236;-75
2023/01/27 05:11:38;;;;;;;64.93;28.63;;;1.30;99.90;;;;;;4994873;28;20201;-75
2023/01/27 05:14:05;;;;;;;64.40;28.80;;;1.30;99.90;;;;;;4977261;28;20201;-75
2023/01/27 05:16:32;;;;;;;67.07;28.40;;;1.30;99.90;;;;;;4994328;28;20204;-75
2023/01/27 05:19:00;;;;;;;64.67;29.87;;;1.30;99.90;;;;;;4992899;28;20294;-75
2023/01/27 05:21:27;;;;;;;66.63;29.73;;;1.20;99.90;;;;;;4993103;28;20210;-75
2023/01/27 05:23:54;;;;;;;62.33;29.63;;;1.20;99.90;;;;;;4976937;28;20279;-74
2023/01/27 05:26:29;;;;;;;65.77;29.13;;;1.30;99.90;;;;;;4992939;28;20298;-75
2023/01/27 05:29:18;;;;;;;64.47;28.73;;;1.20;99.90;;;;;;4993947;28;20643;-74
2023/01/27 05:31:45;;;;;;;62.70;29.00;;;1.20;99.90;;;;;;4980420;28;20659;-74
2023/01/27 05:34:11;;;;;;;64.53;28.87;;;1.20;99.90;;;;;;4976564;28;20204;-75
2023/01/27 05:36:38;;;;;;;62.77;29.20;;;1.10;99.90;;;;;;4976655;28;20208;-75
2023/01/27 05:39:05;;;;;;;66.20;27.80;;;1.10;99.90;;;;;;4976699;28;20197;-77
2023/01/27 05:41:34;;;;;;;70.83;29.97;;;1.10;99.90;;;;;;4994759;28;20256;-76
2023/01/27 05:44:01;;;;;;;64.97;29.00;;;1.00;99.90;;;;;;4994461;28;20650;-77
2023/01/27 05:46:30;;;;;;;67.20;29.77;;;1.00;99.90;;;;;;4994045;28;20231;-76
2023/01/27 05:49:00;;;;;;;68.17;29.43;;;1.00;99.90;;;;;;4976799;28;20228;-75
2023/01/27 05:51:33;;;;;;;65.70;29.27;;;0.90;99.90;;;;;;4994262;28;20197;-75
2023/01/27 05:54:00;;;;;;;63.70;28.80;;;0.90;99.90;;;;;;4975588;28;20298;-74
2023/01/27 05:56:27;;;;;;;66.70;28.20;;;0.80;99.90;;;;;;4992376;28;20228;-74
2023/01/27 05:58:56;;;;;;;67.87;28.93;;;0.80;99.90;;;;;;4960786;28;20682;-76
2023/01/27 06:01:26;;;;;;;63.23;28.43;;;0.80;99.90;;;;;;4976069;28;20231;-76
2023/01/27 06:03:53;;;;;;;67.70;28.77;;;0.70;99.90;;;;;;4976656;28;20203;-78
2023/01/27 06:06:22;;;;;;;64.37;27.70;;;0.70;99.90;;;;;;4976473;28;20231;-75
2023/01/27 06:08:49;;;;;;;66.87;28.97;;;0.70;99.90;;;;;;4976411;28;20189;-76
2023/01/27 06:11:21;;;;;;;64.00;28.43;;;0.70;99.90;;;;;;4993825;28;20224;-76
2023/01/27 06:13:48;;;;;;;64.77;28.13;;;0.80;99.90;;;;;;4976203;28;20246;-75
2023/01/27 06:16:17;;;;;;;65.33;28.70;;;0.80;99.90;;;;;;4975888;28;20200;-77
2023/01/27 06:18:46;;;;;;;67.13;28.93;;;0.80;99.90;;;;;;4993746;28;20608;-77
2023/01/27 06:21:14;;;;;;;64.27;28.47;;;0.70;99.90;;;;;;4976133;28;20208;-75
2023/01/27 06:23:45;;;;;;;65.70;28.60;;;0.70;99.90;;;;;;4976523;28;20193;-76
2023/01/27 06:26:15;;;;;;;67.13;28.60;;;0.60;99.90;;;;;;4975853;28;20223;-77
2023/01/27 06:28:42;;;;;;;70.47;29.03;;;0.60;99.90;;;;;;4975950;28;20296;-77
2023/01/27 06:31:14;;;;;;;66.67;29.20;;;0.60;99.90;;;;;;4976103;28;20203;-75
2023/01/27 06:33:41;;;;;;;62.37;27.47;;;0.60;99.90;;;;;;4975667;28;20882;-76
2023/01/27 06:36:11;;;;;;;69.10;28.87;;;0.60;99.90;;;;;;4975265;28;20231;-76
2023/01/27 06:38:38;;;;;;;67.97;28.90;;;0.60;99.90;;;;;;4992827;28;20321;-77
2023/01/27 06:41:06;;;;;;;70.13;28.80;;;0.60;99.90;;;;;;4993136;28;20275;-77
2023/01/27 06:43:33;;;;;;;61.00;27.63;;;0.60;99.90;;;;;;4975199;28;20206;-78
2023/01/27 06:46:00;;;;;;;67.20;28.47;;;0.60;99.90;;;;;;4975617;28;20220;-78
2023/01/27 06:48:30;;;;;;;63.23;27.60;;;0.60;99.90;;;;;;4976380;28;20225;-76
2023/01/27 06:50:57;;;;;;;66.43;27.53;;;0.60;99.90;;;;;;4976234;28;20653;-77
2023/01/27 06:53:23;;;;;;;63.60;26.63;;;0.60;99.90;;;;;;4976311;28;20204;-75
2023/01/27 06:56:01;;;;;;;63.27;27.60;;;0.60;99.90;;;;;;4975470;28;20224;-77
2023/01/27 06:58:31;;;;;;;65.23;27.30;;;0.60;99.90;;;;;;4975777;28;20226;-76
2023/01/27 07:00:58;;;;;;;67.67;28.47;;;0.70;99.90;;;;;;4975622;28;20231;-75
2023/01/27 07:03:25;;;;;;;66.43;28.63;;;0.70;99.90;;;;;;4993344;28;20193;-77
2023/01/27 07:05:53;;;;;;;63.90;27.80;;;0.70;99.90;;;;;;4992546;28;20223;-76
2023/01/27 07:08:20;;;;;;;67.70;28.23;;;0.70;99.90;;;;;;4992557;28;20192;-76
2023/01/27 07:10:47;;;;;;;64.00;26.77;;;0.80;99.90;;;;;;4982041;28;20220;-75
2023/01/27 07:13:14;;;;;;;60.93;26.70;;;0.90;99.90;;;;;;4992118;28;20207;-77
2023/01/27 07:15:41;;;;;;;67.43;28.07;;;0.90;99.90;;;;;;4975521;28;20610;-77
2023/01/27 07:21:09;;;;;;;59.17;25.97;;;1.20;99.90;;;;;;4934868;29;20262;-78
2023/01/27 07:26:30;;;;;;;57.93;25.03;;;1.20;99.90;;;;;;5046255;23;20238;-78
2023/01/27 07:28:57;;;;;;;60.67;25.70;;;1.30;99.90;;;;;;4994753;28;20242;-78
2023/01/27 07:31:24;;;;;;;59.33;25.77;;;1.30;99.90;;;;;;5027261;28;20732;-75
2023/01/27 07:33:52;;;;;;;61.83;26.20;;;1.40;99.90;;;;;;5012565;28;20194;-80
2023/01/27 07:36:46;;;;;;;58.80;25.33;;;1.50;99.90;;;;;;4928137;28;20210;-78
2023/01/27 07:39:13;;;;;;;64.63;25.40;;;1.50;99.90;;;;;;4995208;28;20250;-78
2023/01/27 07:42:20;;;;;;;56.97;24.43;;;1.40;99.90;;;;;;5017632;23;20260;-80
2023/01/27 07:45:08;;;;;;;52.80;23.60;;;1.60;99.90;;;;;;4991723;28;20301;-80
2023/01/27 07:47:35;;;;;;;55.83;24.00;;;1.60;99.90;;;;;;4977281;28;20228;-80
2023/01/27 07:50:04;;;;;;;50.07;23.10;;;1.70;99.90;;;;;;4978874;28;20200;-81
2023/01/27 07:52:31;;;;;;;54.83;23.50;;;1.80;99.90;;;;;;4996108;28;20563;-77
2023/01/27 07:57:42;;;;;;;53.40;22.23;;;2.10;99.90;;;;;;5102540;23;20238;-85
2023/01/27 08:02:55;;;;;;;48.37;22.10;;;2.50;99.90;;;;;;5076743;23;20232;-80
2023/01/27 08:05:33;;;;;;;47.10;20.77;;;2.90;99.90;;;;;;4994770;28;20291;-77
2023/01/27 08:08:03;;;;;;;47.03;21.30;;;3.30;99.90;;;;;;4982814;28;20695;-80
2023/01/27 08:11:03;;;;;;;48.97;20.60;;;3.90;99.90;;;;;;4941317;28;20197;-79
2023/01/27 08:13:30;;;;;;;38.53;18.30;;;4.10;99.90;;;;;;4975658;28;20220;-80
2023/01/27 08:15:59;;;;;;;39.47;17.57;;;4.30;99.90;;;;;;4989960;28;20204;-79
2023/01/27 08:18:28;;;;;;;38.40;18.50;;;4.70;99.90;;;;;;4996075;28;20197;-76
2023/01/27 08:20:59;;;;;;;36.20;17.97;;;4.90;99.90;;;;;;4994545;28;20251;-76
2023/01/27 08:23:26;;;;;;;43.90;19.13;;;5.10;99.90;;;;;;4995943;28;20192;-78
2023/01/27 08:25:56;;;;;;;37.53;18.37;;;5.10;99.90;;;;;;4994387;28;20201;-76
2023/01/27 08:28:24;;;;;;;38.60;18.67;;;5.20;99.90;;;;;;5010442;28;20209;-76
2023/01/27 08:30:51;;;;;;;36.73;17.80;;;5.20;99.90;;;;;;4997961;28;20267;-78
2023/01/27 08:33:21;;;;;;;36.03;17.97;;;5.40;99.90;;;;;;4997297;28;20200;-78
2023/01/27 08:35:49;;;;;;;36.23;17.83;;;5.40;99.90;;;;;;4994683;28;20224;-78
2023/01/27 08:38:18;;;;;;;34.10;16.43;;;5.50;99.90;;;;;;4994470;28;20229;-77
2023/01/27 08:40:46;;;;;;;33.43;16.23;;;5.60;99.90;;;;;;4994904;28;20571;-80
2023/01/27 08:43:16;;;;;;;28.43;14.60;;;5.60;99.90;;;;;;4995400;28;20207;-77
2023/01/27 08:45:45;;;;;;;30.53;13.83;;;5.60;99.90;;;;;;4978579;28;20528;-77
2023/01/27 08:48:12;;;;;;;29.47;14.73;;;5.60;99.90;;;;;;4977985;28;20233;-79
2023/01/27 08:50:39;;;;;;;29.30;14.93;;;5.60;99.90;;;;;;4996002;28;20274;-80
2023/01/27 08:53:06;;;;;;;34.77;15.47;;;5.70;99.90;;;;;;4977976;28;20603;-76
2023/01/27 08:55:33;;;;;;;32.03;14.90;;;5.80;99.90;;;;;;5010147;28;20242;-76
2023/01/27 08:58:00;;;;;;;37.70;14.93;;;5.80;99.90;;;;;;4994935;28;20193;-77
2023/01/27 09:00:28;;;;;;;35.67;14.83;;;5.50;99.90;;;;;;4995427;28;20221;-78
2023/01/27 09:02:54;;;;;;;37.43;15.33;;;5.40;99.90;;;;;;4993104;28;20687;-74
2023/01/27 09:05:21;;;;;;;33.90;15.80;;;5.20;99.90;;;;;;4995166;28;20197;-73
2023/01/27 09:07:48;;;;;;;28.63;15.03;;;4.90;99.90;;;;;;4994666;28;20217;-74
2023/01/27 09:10:16;;;;;;;28.63;14.40;;;4.80;99.90;;;;;;4994629;28;20196;-74
2023/01/27 09:12:44;;;;;;;28.10;14.33;;;4.80;99.90;;;;;;4993729;28;20199;-76
2023/01/27 09:15:12;;;;;;;28.97;14.73;;;4.70;99.90;;;;;;4993365;28;20208;-77
2023/01/27 09:17:39;;;;;;;31.93;15.00;;;4.80;99.90;;;;;;4993404;28;20195;-78
2023/01/27 09:20:08;;;;;;;29.73;14.97;;;4.80;99.90;;;;;;4977501;28;20735;-77
2023/01/27 09:22:36;;;;;;;31.30;15.30;;;4.70;99.90;;;;;;4992415;28;20193;-75
2023/01/27 09:25:05;;;;;;;29.70;15.40;;;4.70;99.90;;;;;;5004687;28;20569;-76
2023/01/27 09:27:32;;;;;;;31.53;15.23;;;4.60;99.90;;;;;;4974203;28;20238;-77
2023/01/27 09:30:06;;;;;;;26.77;14.43;;;4.60;99.90;;;;;;4973564;28;20277;-77
2023/01/27 09:32:33;;;;;;;28.93;14.97;;;4.50;99.90;;;;;;4973004;28;20214;-76
2023/01/27 09:35:00;;;;;;;31.47;15.27;;;4.50;99.90;;;;;;4973975;28;20213;-78
2023/01/27 09:37:27;;;;;;;27.50;14.53;;;4.20;99.90;;;;;;4975201;28;20204;-76
2023/01/27 09:40:00;;;;;;;30.70;13.90;;;4.20;99.90;;;;;;4973642;28;20194;-75
2023/01/27 09:43:16;;;;;;;30.13;14.60;;;4.30;99.90;;;;;;4972994;28;20664;-78
2023/01/27 09:46:08;;;;;;;25.03;13.50;;;4.40;99.90;;;;;;4973367;28;20673;-80
2023/01/27 09:48:53;;;;;;;28.10;13.33;;;4.30;99.90;;;;;;4988028;28;20190;-78
2023/01/27 09:51:36;;;;;;;28.97;13.97;;;4.40;99.90;;;;;;4988835;28;20239;-76
2023/01/27 09:54:35;;;;;;;26.90;13.53;;;4.30;99.90;;;;;;4983027;28;20284;-78
2023/01/27 09:57:34;;;;;;;26.10;13.03;;;4.30;99.90;;;;;;4973321;28;20244;-76
2023/01/27 10:00:15;;;;;;;25.50;12.83;;;4.40;99.90;;;;;;4982337;28;20226;-76
2023/01/27 10:03:17;;;;;;;28.93;13.73;;;4.50;99.90;;;;;;4972912;28;20234;-74
2023/01/27 10:06:07;;;;;;;25.73;13.47;;;4.60;99.90;;;;;;4991497;28;20211;-74
2023/01/27 10:08:52;;;;;;;28.73;13.47;;;4.50;99.90;;;;;;4992039;28;20220;-74
2023/01/27 10:11:52;;;;;;;24.63;12.83;;;4.60;99.90;;;;;;4991366;28;20195;-73
2023/01/27 10:14:41;;;;;;;26.13;13.43;;;4.70;99.90;;;;;;4989010;28;20205;-76
2023/01/27 10:17:35;;;;;;;27.60;13.87;;;4.80;99.90;;;;;;4974426;28;20198;-76
2023/01/27 10:20:29;;;;;;;26.20;14.20;;;5.00;99.90;;;;;;4973057;28;20671;-78
2023/01/27 10:23:09;;;;;;;27.47;14.20;;;4.90;99.90;;;;;;4974474;28;20726;-78
2023/01/27 10:25:44;;;;;;;31.43;13.70;;;5.00;99.90;;;;;;4977768;28;20218;-77
2023/01/27 10:28:16;;;;;;;30.07;14.10;;;5.00;99.90;;;;;;4993322;28;20228;-79
2023/01/27 10:31:00;;;;;;;27.70;14.17;;;4.90;99.90;;;;;;4992401;28;20203;-76
2023/01/27 10:34:08;;;;;;;31.30;14.73;;;4.90;99.90;;;;;;4992517;28;20629;-76
2023/01/27 10:36:53;;;;;;;27.33;14.37;;;5.00;99.90;;;;;;4955433;28;20641;-77
2023/01/27 10:39:45;;;;;;;25.93;14.17;;;5.10;99.90;;;;;;4955512;28;20236;-78
2023/01/27 10:42:30;;;;;;;26.93;13.87;;;5.20;99.90;;;;;;4938996;28;20269;-77
2023/01/27 10:45:12;;;;;;;32.10;15.13;;;5.10;99.90;;;;;;4954752;28;20645;-78
2023/01/27 10:47:57;;;;;;;29.53;14.73;;;5.30;99.90;;;;;;4954731;28;20225;-77
2023/01/27 10:50:51;;;;;;;29.30;15.50;;;5.20;99.90;;;;;;4955391;28;20215;-78
2023/01/27 10:53:27;;;;;;;30.77;14.97;;;5.30;99.90;;;;;;4971529;28;20237;-75
2023/01/27 10:56:13;;;;;;;30.17;14.90;;;5.10;99.90;;;;;;4954849;28;20224;-75
2023/01/27 10:59:00;;;;;;;27.60;14.70;;;5.00;99.90;;;;;;4971096;28;20195;-74
2023/01/27 11:01:37;;;;;;;32.03;15.63;;;5.00;99.90;;;;;;4954778;28;20292;-76
2023/01/27 11:04:45;;;;;;;32.10;15.33;;;4.90;99.90;;;;;;4954985;28;20205;-76
2023/01/27 11:07:20;;;;;;;30.60;14.47;;;4.70;99.90;;;;;;4879089;29;20236;-76
2023/01/27 11:10:07;;;;;;;31.07;15.10;;;4.80;99.90;;;;;;4901361;29;20266;-76
2023/01/27 11:12:37;;;;;;;28.67;14.23;;;4.90;99.90;;;;;;4916528;29;20304;-77
2023/01/27 11:15:17;;;;;;;27.90;14.30;;;5.00;99.90;;;;;;4916654;29;20568;-76
2023/01/27 11:18:07;;;;;;;31.70;13.93;;;4.90;99.90;;;;;;4917277;29;20213;-77
2023/01/27 11:20:41;;;;;;;29.57;14.43;;;5.10;99.90;;;;;;4916955;29;20287;-79
2023/01/27 11:23:08;;;;;;;28.37;13.87;;;5.00;99.90;;;;;;4936766;29;20218;-77
2023/01/27 11:26:10;;;;;;;32.60;13.87;;;5.00;99.90;;;;;;4919959;29;20205;-78
2023/01/27 11:29:01;;;;;;;27.37;14.50;;;4.90;99.90;;;;;;4920523;29;20227;-76
2023/01/27 11:31:53;;;;;;;30.00;14.40;;;4.90;99.90;;;;;;4936883;29;20205;-78
2023/01/27 11:34:56;;;;;;;27.00;13.83;;;4.60;99.90;;;;;;4936734;29;20649;-78
2023/01/27 11:37:30;;;;;;;28.13;14.17;;;4.50;99.90;;;;;;4936031;29;20340;-78
2023/01/27 11:39:57;;;;;;;27.87;14.27;;;4.40;99.90;;;;;;4920723;29;20350;-78
2023/01/27 11:42:33;;;;;;;28.00;13.87;;;4.40;99.90;;;;;;4938793;28;20369;-79
2023/01/27 11:45:01;;;;;;;31.30;13.67;;;4.60;99.90;;;;;;4975742;28;20640;-80
2023/01/27 11:47:38;;;;;;;25.57;14.00;;;4.50;99.90;;;;;;4975599;28;20230;-78
2023/01/27 11:50:07;;;;;;;26.73;13.63;;;4.40;99.90;;;;;;4976123;28;20219;-80
2023/01/27 11:52:34;;;;;;;29.23;14.73;;;4.40;99.90;;;;;;4975740;28;20663;-77
2023/01/27 11:55:06;;;;;;;26.57;13.87;;;4.40;99.90;;;;;;4977013;28;20205;-75
2023/01/27 11:57:40;;;;;;;27.30;14.17;;;4.20;99.90;;;;;;4976077;28;20238;-75
2023/01/27 12:00:46;;;;;;;30.23;15.43;;;4.30;99.90;;;;;;4974946;28;20325;-75
2023/01/27 12:06:53;;;;;;;33.23;15.70;;;4.30;99.90;;;;;;4942036;26;20636;-80
2023/01/27 12:09:36;;;;;;;31.30;15.63;;;4.20;99.90;;;;;;5016356;28;20302;-78
2023/01/27 12:12:22;;;;;;;31.03;16.17;;;4.20;99.90;;;;;;5015902;28;20197;-77
2023/01/27 12:15:03;;;;;;;33.63;16.33;;;4.30;99.90;;;;;;4998378;28;20204;-79
2023/01/27 12:17:43;;;;;;;32.50;16.60;;;4.40;99.90;;;;;;4998134;28;20206;-80
2023/01/27 12:20:25;;;;;;;34.80;17.07;;;4.30;99.90;;;;;;4982054;28;20285;-77
2023/01/27 12:22:58;;;;;;;34.97;17.17;;;4.30;99.90;;;;;;4997023;28;20196;-78
2023/01/27 12:25:30;;;;;;;39.50;18.03;;;4.30;99.90;;;;;;4998150;28;20189;-79
2023/01/27 12:28:03;;;;;;;35.37;17.73;;;4.20;99.90;;;;;;5003826;28;20278;-75
2023/01/27 12:30:34;;;;;;;38.57;18.23;;;4.10;99.90;;;;;;4997968;28;20564;-74
2023/01/27 12:33:19;;;;;;;39.00;19.03;;;4.10;99.90;;;;;;4980728;28;20613;-74
2023/01/27 12:35:49;;;;;;;42.33;20.07;;;4.00;99.90;;;;;;4997154;28;20200;-79
2023/01/27 12:38:21;;;;;;;42.87;18.93;;;3.70;99.90;;;;;;5015367;28;20192;-75
2023/01/27 12:40:58;;;;;;;38.50;18.50;;;3.70;99.90;;;;;;5013866;28;20204;-75
2023/01/27 12:43:25;;;;;;;42.47;19.87;;;3.70;99.90;;;;;;4997507;28;20195;-77
2023/01/27 12:46:08;;;;;;;36.63;18.57;;;3.80;99.90;;;;;;4993847;28;20201;-77
2023/01/27 12:48:49;;;;;;;38.10;18.57;;;3.80;99.90;;;;;;5010794;28;20291;-75
2023/01/27 12:51:44;;;;;;;42.27;19.63;;;3.70;99.90;;;;;;4995082;28;20220;-78
2023/01/27 12:54:31;;;;;;;40.50;19.27;;;3.90;99.90;;;;;;5011670;28;20217;-74
2023/01/27 12:57:16;;;;;;;38.13;18.77;;;3.80;99.90;;;;;;4982220;28;20263;-74
2023/01/27 12:59:53;;;;;;;35.57;16.43;;;3.80;99.90;;;;;;4972157;28;20226;-73
2023/01/27 13:02:24;;;;;;;32.70;16.17;;;3.70;99.90;;;;;;4986716;28;20209;-74
2023/01/27 13:05:02;;;;;;;33.07;15.53;;;3.60;99.90;;;;;;4974255;28;20263;-75
2023/01/27 13:07:41;;;;;;;32.87;15.70;;;3.40;99.90;;;;;;4975881;28;20239;-73
2023/01/27 13:10:34;;;;;;;32.57;16.23;;;3.40;99.90;;;;;;4992244;28;20204;-76
2023/01/27 13:13:03;;;;;;;34.13;16.60;;;3.40;99.90;;;;;;4973284;28;20201;-75
2023/01/27 13:16:02;;;;;;;34.30;15.63;;;3.50;99.90;;;;;;4992988;28;20276;-75
2023/01/27 13:18:37;;;;;;;35.50;15.87;;;3.30;99.90;;;;;;4975854;28;20193;-79
2023/01/27 13:21:20;;;;;;;35.27;17.00;;;3.30;99.90;;;;;;4992556;28;20194;-76
2023/01/27 13:23:49;;;;;;;38.33;17.70;;;3.30;99.90;;;;;;4993723;28;20196;-77
2023/01/27 13:26:22;;;;;;;41.03;17.80;;;3.20;99.90;;;;;;4994468;28;20701;-74
2023/01/27 13:28:52;;;;;;;41.83;19.57;;;3.30;99.90;;;;;;4975962;28;20227;-77
2023/01/27 13:31:41;;;;;;;61.87;22.60;;;3.20;99.90;;;;;;4977506;28;20201;-79
2023/01/27 13:34:48;;;;;;;45.07;20.57;;;3.20;99.90;;;;;;4976838;28;20615;-74
2023/01/27 13:37:39;;;;;;;48.13;20.67;;;3.20;99.90;;;;;;4990847;28;20224;-78
2023/01/27 13:40:35;;;;;;;47.03;21.30;;;3.10;99.90;;;;;;4975426;28;20333;-72
2023/01/27 13:43:20;;;;;;;50.30;22.27;;;3.10;99.90;;;;;;4972591;28;20729;-73
2023/01/27 13:45:54;;;;;;;48.87;22.00;;;3.00;99.90;;;;;;4974839;28;20563;-70
2023/01/27 13:48:32;;;;;;;52.03;22.60;;;3.00;99.90;;;;;;4992903;28;20225;-72
2023/01/27 13:51:14;;;;;;;56.20;23.30;;;3.00;99.90;;;;;;4992527;28;20216;-68
2023/01/27 13:53:43;;;;;;;53.00;23.17;;;3.00;99.90;;;;;;4972839;28;20296;-74
2023/01/27 13:56:19;;;;;;;51.87;22.90;;;3.00;99.90;;;;;;4995362;28;20229;-81
2023/01/27 13:59:14;;;;;;;53.80;23.13;;;3.00;99.90;;;;;;4993513;28;20608;-78